< < Back
Terminal Aerodrome Forecast


Current Version              Previous Versions:   1  2  3  4  5  6  7  8  9  

Terminal Aerodrome Forecast

786
FTUS42 KCHS 242335
TAFSAV
TAF
KSAV 242335Z 2500/2524 00000KT P6SM FEW050
     FM250500 00000KT P6SM SCT020 SCT050
     FM250900 00000KT P6SM VCSH SCT015 BKN040
     FM251400 05007KT P6SM SCT025
     FM251900 13007KT P6SM SCT250=

Latest METAR

386
SAUS80 KWBC 251000
MTRSAV
METAR KSAV 250953Z 00000KT 10SM FEW015 SCT100 23/22 A3005 RMK AO2 SLP175
T02330217


USA.gov is the U.S. government's official web portal to all federal, state and local government web resources and services.